sensor_id;sensor_type;location;lat;lon;timestamp;P1;durP1;ratioP1;P2;durP2;ratioP2
43646;SDS011;56152;49.996;18.980;2023-02-28T00:00:14;33.47;;;15.93;;
43646;SDS011;56152;49.996;18.980;2023-02-28T00:05:17;27.20;;;12.80;;
43646;SDS011;56152;49.996;18.980;2023-02-28T00:10:24;27.10;;;12.73;;
43646;SDS011;56152;49.996;18.980;2023-02-28T00:15:30;41.40;;;19.60;;
43646;SDS011;56152;49.996;18.980;2023-02-28T00:20:35;38.67;;;16.70;;
43646;SDS011;56152;49.996;18.980;2023-02-28T00:25:41;49.90;;;21.67;;
43646;SDS011;56152;49.996;18.980;2023-02-28T00:30:43;42.53;;;21.20;;
43646;SDS011;56152;49.996;18.980;2023-02-28T00:35:49;53.13;;;20.73;;
43646;SDS011;56152;49.996;18.980;2023-02-28T00:40:56;80.70;;;28.50;;
43646;SDS011;56152;49.996;18.980;2023-02-28T00:45:58;52.30;;;20.93;;
43646;SDS011;56152;49.996;18.980;2023-02-28T00:51:00;59.47;;;26.43;;
43646;SDS011;56152;49.996;18.980;2023-02-28T00:56:09;44.83;;;20.47;;
43646;SDS011;56152;49.996;18.980;2023-02-28T01:01:13;44.10;;;20.57;;
43646;SDS011;56152;49.996;18.980;2023-02-28T01:06:16;55.53;;;23.43;;
43646;SDS011;56152;49.996;18.980;2023-02-28T01:11:21;52.70;;;22.80;;
43646;SDS011;56152;49.996;18.980;2023-02-28T01:16:26;69.57;;;24.70;;
43646;SDS011;56152;49.996;18.980;2023-02-28T01:21:30;53.27;;;24.00;;
43646;SDS011;56152;49.996;18.980;2023-02-28T01:26:37;37.40;;;17.90;;
43646;SDS011;56152;49.996;18.980;2023-02-28T01:31:41;29.03;;;14.53;;
43646;SDS011;56152;49.996;18.980;2023-02-28T01:36:43;35.00;;;17.10;;
43646;SDS011;56152;49.996;18.980;2023-02-28T01:41:50;27.37;;;13.83;;
43646;SDS011;56152;49.996;18.980;2023-02-28T01:46:55;31.00;;;15.10;;
43646;SDS011;56152;49.996;18.980;2023-02-28T01:51:58;28.27;;;14.83;;
43646;SDS011;56152;49.996;18.980;2023-02-28T01:57:17;33.23;;;15.93;;
43646;SDS011;56152;49.996;18.980;2023-02-28T02:02:24;32.07;;;16.10;;
43646;SDS011;56152;49.996;18.980;2023-02-28T02:07:27;32.33;;;14.37;;
43646;SDS011;56152;49.996;18.980;2023-02-28T02:12:48;36.23;;;16.73;;
43646;SDS011;56152;49.996;18.980;2023-02-28T02:18:11;35.90;;;18.13;;
43646;SDS011;56152;49.996;18.980;2023-02-28T02:23:37;41.67;;;20.23;;
43646;SDS011;56152;49.996;18.980;2023-02-28T02:29:19;37.60;;;21.33;;
43646;SDS011;56152;49.996;18.980;2023-02-28T02:34:45;51.93;;;20.50;;
43646;SDS011;56152;49.996;18.980;2023-02-28T02:40:01;45.07;;;19.90;;
43646;SDS011;56152;49.996;18.980;2023-02-28T02:45:09;35.55;;;17.52;;
43646;SDS011;56152;49.996;18.980;2023-02-28T02:50:19;28.53;;;15.80;;
43646;SDS011;56152;49.996;18.980;2023-02-28T02:55:25;33.80;;;16.80;;
43646;SDS011;56152;49.996;18.980;2023-02-28T03:00:29;34.43;;;15.67;;
43646;SDS011;56152;49.996;18.980;2023-02-28T03:05:39;28.40;;;15.37;;
43646;SDS011;56152;49.996;18.980;2023-02-28T03:10:47;33.30;;;14.73;;
43646;SDS011;56152;49.996;18.980;2023-02-28T03:16:01;20.40;;;11.63;;
43646;SDS011;56152;49.996;18.980;2023-02-28T03:21:31;45.57;;;24.90;;
43646;SDS011;56152;49.996;18.980;2023-02-28T03:26:41;35.87;;;16.83;;
43646;SDS011;56152;49.996;18.980;2023-02-28T03:31:48;49.30;;;17.50;;
43646;SDS011;56152;49.996;18.980;2023-02-28T03:36:55;56.73;;;21.73;;
43646;SDS011;56152;49.996;18.980;2023-02-28T03:42:04;93.43;;;43.27;;
43646;SDS011;56152;49.996;18.980;2023-02-28T03:47:12;52.97;;;29.50;;
43646;SDS011;56152;49.996;18.980;2023-02-28T03:52:23;29.77;;;15.70;;
43646;SDS011;56152;49.996;18.980;2023-02-28T03:57:32;30.73;;;17.40;;
43646;SDS011;56152;49.996;18.980;2023-02-28T04:02:44;34.63;;;18.20;;
43646;SDS011;56152;49.996;18.980;2023-02-28T04:07:59;37.87;;;19.73;;
43646;SDS011;56152;49.996;18.980;2023-02-28T04:13:07;52.70;;;23.50;;
43646;SDS011;56152;49.996;18.980;2023-02-28T04:18:09;43.23;;;20.83;;
43646;SDS011;56152;49.996;18.980;2023-02-28T04:23:13;38.77;;;23.00;;
43646;SDS011;56152;49.996;18.980;2023-02-28T04:28:15;37.77;;;21.10;;
43646;SDS011;56152;49.996;18.980;2023-02-28T04:33:18;36.83;;;20.03;;
43646;SDS011;56152;49.996;18.980;2023-02-28T04:38:23;32.90;;;16.67;;
43646;SDS011;56152;49.996;18.980;2023-02-28T04:43:25;37.27;;;19.47;;
43646;SDS011;56152;49.996;18.980;2023-02-28T04:48:32;32.97;;;19.20;;
43646;SDS011;56152;49.996;18.980;2023-02-28T04:53:38;34.40;;;18.17;;
43646;SDS011;56152;49.996;18.980;2023-02-28T04:58:45;42.43;;;22.97;;
43646;SDS011;56152;49.996;18.980;2023-02-28T05:03:48;44.23;;;23.07;;
43646;SDS011;56152;49.996;18.980;2023-02-28T05:08:53;64.33;;;28.33;;
43646;SDS011;56152;49.996;18.980;2023-02-28T05:13:55;102.80;;;36.93;;
43646;SDS011;56152;49.996;18.980;2023-02-28T05:18:58;156.53;;;49.67;;
43646;SDS011;56152;49.996;18.980;2023-02-28T05:24:07;89.87;;;35.33;;
43646;SDS011;56152;49.996;18.980;2023-02-28T05:29:11;120.20;;;43.20;;
43646;SDS011;56152;49.996;18.980;2023-02-28T05:34:13;156.17;;;58.50;;
43646;SDS011;56152;49.996;18.980;2023-02-28T05:39:18;442.57;;;173.37;;
43646;SDS011;56152;49.996;18.980;2023-02-28T05:44:20;162.17;;;75.27;;
43646;SDS011;56152;49.996;18.980;2023-02-28T05:49:22;166.60;;;83.20;;
43646;SDS011;56152;49.996;18.980;2023-02-28T05:54:29;142.53;;;60.83;;
43646;SDS011;56152;49.996;18.980;2023-02-28T05:59:31;118.70;;;61.47;;
43646;SDS011;56152;49.996;18.980;2023-02-28T06:04:36;90.13;;;41.63;;
43646;SDS011;56152;49.996;18.980;2023-02-28T06:09:43;69.70;;;32.13;;
43646;SDS011;56152;49.996;18.980;2023-02-28T06:14:46;81.33;;;45.00;;
43646;SDS011;56152;49.996;18.980;2023-02-28T06:19:50;67.43;;;35.90;;
43646;SDS011;56152;49.996;18.980;2023-02-28T06:24:55;75.60;;;37.57;;
43646;SDS011;56152;49.996;18.980;2023-02-28T06:30:02;52.50;;;28.07;;
43646;SDS011;56152;49.996;18.980;2023-02-28T06:35:05;90.10;;;51.43;;
43646;SDS011;56152;49.996;18.980;2023-02-28T06:40:10;118.90;;;50.73;;
43646;SDS011;56152;49.996;18.980;2023-02-28T06:45:14;275.40;;;122.60;;
43646;SDS011;56152;49.996;18.980;2023-02-28T06:50:17;58.43;;;32.47;;
43646;SDS011;56152;49.996;18.980;2023-02-28T06:55:23;74.40;;;34.57;;
43646;SDS011;56152;49.996;18.980;2023-02-28T07:00:26;72.17;;;29.47;;
43646;SDS011;56152;49.996;18.980;2023-02-28T07:05:29;51.20;;;23.57;;
43646;SDS011;56152;49.996;18.980;2023-02-28T07:10:36;57.90;;;25.70;;
43646;SDS011;56152;49.996;18.980;2023-02-28T07:15:39;64.03;;;26.93;;
43646;SDS011;56152;49.996;18.980;2023-02-28T07:20:42;45.60;;;21.07;;
43646;SDS011;56152;49.996;18.980;2023-02-28T07:25:47;51.67;;;23.67;;
43646;SDS011;56152;49.996;18.980;2023-02-28T07:30:51;59.83;;;26.63;;
43646;SDS011;56152;49.996;18.980;2023-02-28T07:35:59;36.33;;;19.87;;
43646;SDS011;56152;49.996;18.980;2023-02-28T07:41:04;44.63;;;23.77;;
43646;SDS011;56152;49.996;18.980;2023-02-28T07:46:10;54.47;;;31.20;;
43646;SDS011;56152;49.996;18.980;2023-02-28T07:51:16;57.63;;;34.87;;
43646;SDS011;56152;49.996;18.980;2023-02-28T07:56:20;172.43;;;58.07;;
43646;SDS011;56152;49.996;18.980;2023-02-28T08:01:22;106.20;;;39.00;;
43646;SDS011;56152;49.996;18.980;2023-02-28T08:06:25;64.97;;;30.00;;
43646;SDS011;56152;49.996;18.980;2023-02-28T08:11:33;54.90;;;26.80;;
43646;SDS011;56152;49.996;18.980;2023-02-28T08:16:36;51.30;;;25.03;;
43646;SDS011;56152;49.996;18.980;2023-02-28T08:21:38;36.23;;;18.47;;
43646;SDS011;56152;49.996;18.980;2023-02-28T08:26:47;59.03;;;32.93;;
43646;SDS011;56152;49.996;18.980;2023-02-28T08:31:49;35.53;;;19.03;;
43646;SDS011;56152;49.996;18.980;2023-02-28T08:36:51;99.07;;;41.43;;
43646;SDS011;56152;49.996;18.980;2023-02-28T08:41:56;66.80;;;27.80;;
43646;SDS011;56152;49.996;18.980;2023-02-28T08:47:01;29.77;;;13.87;;
43646;SDS011;56152;49.996;18.980;2023-02-28T08:52:04;21.00;;;9.67;;
43646;SDS011;56152;49.996;18.980;2023-02-28T08:57:09;17.80;;;8.03;;
43646;SDS011;56152;49.996;18.980;2023-02-28T09:02:12;14.93;;;7.50;;
43646;SDS011;56152;49.996;18.980;2023-02-28T09:07:15;18.63;;;7.78;;
43646;SDS011;56152;49.996;18.980;2023-02-28T09:12:19;13.45;;;7.45;;
43646;SDS011;56152;49.996;18.980;2023-02-28T09:17:21;10.18;;;6.40;;
43646;SDS011;56152;49.996;18.980;2023-02-28T09:22:24;16.47;;;8.33;;
43646;SDS011;56152;49.996;18.980;2023-02-28T09:27:28;13.73;;;7.70;;
43646;SDS011;56152;49.996;18.980;2023-02-28T09:32:30;13.35;;;7.65;;
43646;SDS011;56152;49.996;18.980;2023-02-28T09:37:34;12.23;;;7.20;;
43646;SDS011;56152;49.996;18.980;2023-02-28T09:42:38;24.40;;;13.00;;
43646;SDS011;56152;49.996;18.980;2023-02-28T09:47:40;13.30;;;7.50;;
43646;SDS011;56152;49.996;18.980;2023-02-28T09:52:45;15.07;;;8.73;;
43646;SDS011;56152;49.996;18.980;2023-02-28T09:57:52;15.15;;;7.95;;
43646;SDS011;56152;49.996;18.980;2023-02-28T10:08:32;41.78;;;26.05;;
43646;SDS011;56152;49.996;18.980;2023-02-28T10:13:46;24.42;;;12.75;;
43646;SDS011;56152;49.996;18.980;2023-02-28T10:18:59;17.33;;;8.95;;
43646;SDS011;56152;49.996;18.980;2023-02-28T10:24:21;17.52;;;10.48;;
43646;SDS011;56152;49.996;18.980;2023-02-28T10:29:34;14.65;;;9.57;;
43646;SDS011;56152;49.996;18.980;2023-02-28T10:34:36;37.08;;;18.02;;
43646;SDS011;56152;49.996;18.980;2023-02-28T10:39:39;16.52;;;9.50;;
43646;SDS011;56152;49.996;18.980;2023-02-28T10:44:45;17.60;;;10.60;;
43646;SDS011;56152;49.996;18.980;2023-02-28T10:49:50;88.78;;;38.42;;
43646;SDS011;56152;49.996;18.980;2023-02-28T10:54:53;20.23;;;11.88;;
43646;SDS011;56152;49.996;18.980;2023-02-28T11:00:19;17.15;;;10.63;;
43646;SDS011;56152;49.996;18.980;2023-02-28T11:05:24;17.30;;;11.02;;
43646;SDS011;56152;49.996;18.980;2023-02-28T11:10:29;19.17;;;10.57;;
43646;SDS011;56152;49.996;18.980;2023-02-28T11:15:36;17.70;;;9.70;;
43646;SDS011;56152;49.996;18.980;2023-02-28T11:20:38;16.92;;;9.60;;
43646;SDS011;56152;49.996;18.980;2023-02-28T11:25:46;17.50;;;10.23;;
43646;SDS011;56152;49.996;18.980;2023-02-28T11:31:00;20.17;;;11.07;;
43646;SDS011;56152;49.996;18.980;2023-02-28T11:36:08;18.00;;;11.38;;
43646;SDS011;56152;49.996;18.980;2023-02-28T11:46:54;20.42;;;10.73;;
43646;SDS011;56152;49.996;18.980;2023-02-28T11:52:05;19.95;;;10.75;;
43646;SDS011;56152;49.996;18.980;2023-02-28T11:57:21;23.63;;;13.95;;
43646;SDS011;56152;49.996;18.980;2023-02-28T12:02:38;11.65;;;7.05;;
43646;SDS011;56152;49.996;18.980;2023-02-28T12:08:02;14.75;;;9.27;;
43646;SDS011;56152;49.996;18.980;2023-02-28T12:13:16;13.38;;;7.88;;
43646;SDS011;56152;49.996;18.980;2023-02-28T12:18:28;20.17;;;9.73;;
43646;SDS011;56152;49.996;18.980;2023-02-28T12:23:58;30.88;;;20.35;;
43646;SDS011;56152;49.996;18.980;2023-02-28T12:29:10;16.65;;;10.55;;
43646;SDS011;56152;49.996;18.980;2023-02-28T12:34:22;16.85;;;11.80;;
43646;SDS011;56152;49.996;18.980;2023-02-28T12:39:30;15.25;;;9.45;;
43646;SDS011;56152;49.996;18.980;2023-02-28T12:44:39;20.73;;;12.73;;
43646;SDS011;56152;49.996;18.980;2023-02-28T12:49:48;15.90;;;8.57;;
43646;SDS011;56152;49.996;18.980;2023-02-28T12:54:54;17.70;;;10.57;;
43646;SDS011;56152;49.996;18.980;2023-02-28T13:00:04;14.48;;;7.85;;
43646;SDS011;56152;49.996;18.980;2023-02-28T13:10:37;17.88;;;9.07;;
43646;SDS011;56152;49.996;18.980;2023-02-28T13:16:00;18.65;;;12.45;;
43646;SDS011;56152;49.996;18.980;2023-02-28T13:21:07;15.15;;;8.65;;
43646;SDS011;56152;49.996;18.980;2023-02-28T13:26:10;14.70;;;9.95;;
43646;SDS011;56152;49.996;18.980;2023-02-28T13:31:13;19.15;;;10.82;;
43646;SDS011;56152;49.996;18.980;2023-02-28T13:36:27;19.33;;;10.23;;
43646;SDS011;56152;49.996;18.980;2023-02-28T13:41:44;23.58;;;11.73;;
43646;SDS011;56152;49.996;18.980;2023-02-28T13:52:26;42.15;;;18.20;;
43646;SDS011;56152;49.996;18.980;2023-02-28T13:57:31;31.10;;;12.50;;
43646;SDS011;56152;49.996;18.980;2023-02-28T14:02:51;20.35;;;14.50;;
43646;SDS011;56152;49.996;18.980;2023-02-28T14:08:10;14.70;;;9.75;;
43646;SDS011;56152;49.996;18.980;2023-02-28T14:18:47;36.30;;;25.52;;
43646;SDS011;56152;49.996;18.980;2023-02-28T14:30:01;14.38;;;8.55;;
43646;SDS011;56152;49.996;18.980;2023-02-28T14:35:35;16.02;;;11.40;;
43646;SDS011;56152;49.996;18.980;2023-02-28T14:40:47;16.23;;;10.35;;
43646;SDS011;56152;49.996;18.980;2023-02-28T14:45:56;16.98;;;10.43;;
43646;SDS011;56152;49.996;18.980;2023-02-28T14:51:00;21.00;;;9.98;;
43646;SDS011;56152;49.996;18.980;2023-02-28T14:56:05;28.20;;;13.02;;
43646;SDS011;56152;49.996;18.980;2023-02-28T15:01:21;15.60;;;7.13;;
43646;SDS011;56152;49.996;18.980;2023-02-28T15:06:24;18.83;;;9.20;;
43646;SDS011;56152;49.996;18.980;2023-02-28T15:11:26;14.07;;;7.10;;
43646;SDS011;56152;49.996;18.980;2023-02-28T15:16:31;15.30;;;7.85;;
43646;SDS011;56152;49.996;18.980;2023-02-28T15:21:38;19.05;;;7.95;;
43646;SDS011;56152;49.996;18.980;2023-02-28T15:26:46;14.45;;;8.65;;
43646;SDS011;56152;49.996;18.980;2023-02-28T15:31:56;14.40;;;8.70;;
43646;SDS011;56152;49.996;18.980;2023-02-28T15:37:06;17.48;;;8.45;;
43646;SDS011;56152;49.996;18.980;2023-02-28T15:42:11;21.42;;;10.88;;
43646;SDS011;56152;49.996;18.980;2023-02-28T15:47:21;18.08;;;13.70;;
43646;SDS011;56152;49.996;18.980;2023-02-28T15:52:27;434.95;;;215.25;;
43646;SDS011;56152;49.996;18.980;2023-02-28T15:57:32;52.53;;;29.85;;
43646;SDS011;56152;49.996;18.980;2023-02-28T16:02:35;36.55;;;16.52;;
43646;SDS011;56152;49.996;18.980;2023-02-28T16:07:39;20.85;;;12.73;;
43646;SDS011;56152;49.996;18.980;2023-02-28T16:12:42;23.13;;;11.50;;
43646;SDS011;56152;49.996;18.980;2023-02-28T16:17:47;20.03;;;11.07;;
43646;SDS011;56152;49.996;18.980;2023-02-28T16:22:50;16.67;;;9.23;;
43646;SDS011;56152;49.996;18.980;2023-02-28T16:27:53;18.27;;;10.53;;
43646;SDS011;56152;49.996;18.980;2023-02-28T16:33:00;132.03;;;56.43;;
43646;SDS011;56152;49.996;18.980;2023-02-28T16:38:06;231.07;;;95.17;;
43646;SDS011;56152;49.996;18.980;2023-02-28T16:43:18;64.03;;;34.37;;
43646;SDS011;56152;49.996;18.980;2023-02-28T16:48:29;51.33;;;26.10;;
43646;SDS011;56152;49.996;18.980;2023-02-28T16:53:31;88.10;;;36.27;;
43646;SDS011;56152;49.996;18.980;2023-02-28T16:58:34;65.23;;;29.10;;
43646;SDS011;56152;49.996;18.980;2023-02-28T17:03:39;43.70;;;25.63;;
43646;SDS011;56152;49.996;18.980;2023-02-28T17:08:42;47.20;;;23.50;;
43646;SDS011;56152;49.996;18.980;2023-02-28T17:13:54;41.83;;;20.87;;
43646;SDS011;56152;49.996;18.980;2023-02-28T17:18:59;221.10;;;89.50;;
43646;SDS011;56152;49.996;18.980;2023-02-28T17:24:05;212.73;;;86.03;;
43646;SDS011;56152;49.996;18.980;2023-02-28T17:29:11;156.20;;;66.67;;
43646;SDS011;56152;49.996;18.980;2023-02-28T17:34:17;125.00;;;58.30;;
43646;SDS011;56152;49.996;18.980;2023-02-28T17:39:23;111.77;;;50.30;;
43646;SDS011;56152;49.996;18.980;2023-02-28T17:44:26;99.23;;;39.63;;
43646;SDS011;56152;49.996;18.980;2023-02-28T17:49:33;136.53;;;49.90;;
43646;SDS011;56152;49.996;18.980;2023-02-28T17:54:35;107.00;;;40.17;;
43646;SDS011;56152;49.996;18.980;2023-02-28T17:59:38;113.03;;;46.37;;
43646;SDS011;56152;49.996;18.980;2023-02-28T18:04:46;108.90;;;55.47;;
43646;SDS011;56152;49.996;18.980;2023-02-28T18:09:51;159.37;;;75.60;;
43646;SDS011;56152;49.996;18.980;2023-02-28T18:14:55;151.57;;;66.83;;
43646;SDS011;56152;49.996;18.980;2023-02-28T18:20:01;224.97;;;77.83;;
43646;SDS011;56152;49.996;18.980;2023-02-28T18:25:08;200.83;;;68.20;;
43646;SDS011;56152;49.996;18.980;2023-02-28T18:30:13;263.60;;;77.47;;
43646;SDS011;56152;49.996;18.980;2023-02-28T18:35:21;242.90;;;74.30;;
43646;SDS011;56152;49.996;18.980;2023-02-28T18:40:35;232.53;;;70.17;;
43646;SDS011;56152;49.996;18.980;2023-02-28T18:45:38;262.37;;;78.93;;
43646;SDS011;56152;49.996;18.980;2023-02-28T18:50:42;214.17;;;65.23;;
43646;SDS011;56152;49.996;18.980;2023-02-28T18:55:44;128.87;;;46.27;;
43646;SDS011;56152;49.996;18.980;2023-02-28T19:00:47;132.33;;;52.50;;
43646;SDS011;56152;49.996;18.980;2023-02-28T19:05:55;82.50;;;38.43;;
43646;SDS011;56152;49.996;18.980;2023-02-28T19:10:59;65.60;;;31.20;;
43646;SDS011;56152;49.996;18.980;2023-02-28T19:16:07;63.57;;;29.07;;
43646;SDS011;56152;49.996;18.980;2023-02-28T19:21:13;77.83;;;30.97;;
43646;SDS011;56152;49.996;18.980;2023-02-28T19:26:17;84.03;;;38.63;;
43646;SDS011;56152;49.996;18.980;2023-02-28T19:31:22;119.00;;;51.43;;
43646;SDS011;56152;49.996;18.980;2023-02-28T19:36:26;173.83;;;58.90;;
43646;SDS011;56152;49.996;18.980;2023-02-28T19:41:29;165.20;;;53.77;;
43646;SDS011;56152;49.996;18.980;2023-02-28T19:46:37;206.87;;;68.63;;
43646;SDS011;56152;49.996;18.980;2023-02-28T19:51:46;82.47;;;35.67;;
43646;SDS011;56152;49.996;18.980;2023-02-28T19:56:48;80.57;;;31.67;;
43646;SDS011;56152;49.996;18.980;2023-02-28T20:01:50;101.93;;;39.43;;
43646;SDS011;56152;49.996;18.980;2023-02-28T20:06:57;84.23;;;33.20;;
43646;SDS011;56152;49.996;18.980;2023-02-28T20:11:59;156.60;;;54.97;;
43646;SDS011;56152;49.996;18.980;2023-02-28T20:17:14;81.17;;;35.63;;
43646;SDS011;56152;49.996;18.980;2023-02-28T20:22:40;128.00;;;48.07;;
43646;SDS011;56152;49.996;18.980;2023-02-28T20:27:42;187.77;;;57.23;;
43646;SDS011;56152;49.996;18.980;2023-02-28T20:32:45;209.50;;;61.67;;
43646;SDS011;56152;49.996;18.980;2023-02-28T20:37:58;151.23;;;51.03;;
43646;SDS011;56152;49.996;18.980;2023-02-28T20:43:01;127.10;;;45.47;;
43646;SDS011;56152;49.996;18.980;2023-02-28T20:48:03;125.23;;;47.70;;
43646;SDS011;56152;49.996;18.980;2023-02-28T20:53:10;128.93;;;46.80;;
43646;SDS011;56152;49.996;18.980;2023-02-28T20:58:12;123.80;;;47.50;;
43646;SDS011;56152;49.996;18.980;2023-02-28T21:03:18;161.13;;;53.67;;
43646;SDS011;56152;49.996;18.980;2023-02-28T21:08:25;188.53;;;57.40;;
43646;SDS011;56152;49.996;18.980;2023-02-28T21:13:27;164.80;;;52.00;;
43646;SDS011;56152;49.996;18.980;2023-02-28T21:18:30;185.00;;;63.10;;
43646;SDS011;56152;49.996;18.980;2023-02-28T21:23:35;131.27;;;48.20;;
43646;SDS011;56152;49.996;18.980;2023-02-28T21:28:39;161.40;;;55.87;;
43646;SDS011;56152;49.996;18.980;2023-02-28T21:33:43;153.33;;;55.23;;
43646;SDS011;56152;49.996;18.980;2023-02-28T21:38:48;156.13;;;52.87;;
43646;SDS011;56152;49.996;18.980;2023-02-28T21:43:55;111.57;;;46.90;;
43646;SDS011;56152;49.996;18.980;2023-02-28T21:49:01;104.80;;;45.33;;
43646;SDS011;56152;49.996;18.980;2023-02-28T21:54:05;104.27;;;46.20;;
43646;SDS011;56152;49.996;18.980;2023-02-28T21:59:08;115.77;;;50.97;;
43646;SDS011;56152;49.996;18.980;2023-02-28T22:04:14;138.73;;;57.77;;
43646;SDS011;56152;49.996;18.980;2023-02-28T22:09:22;132.75;;;54.58;;
43646;SDS011;56152;49.996;18.980;2023-02-28T22:14:24;138.60;;;56.37;;
43646;SDS011;56152;49.996;18.980;2023-02-28T22:19:27;122.97;;;47.00;;
43646;SDS011;56152;49.996;18.980;2023-02-28T22:24:32;113.70;;;48.70;;
43646;SDS011;56152;49.996;18.980;2023-02-28T22:29:34;108.70;;;45.77;;
43646;SDS011;56152;49.996;18.980;2023-02-28T22:34:36;114.00;;;45.83;;
43646;SDS011;56152;49.996;18.980;2023-02-28T22:39:40;121.83;;;51.80;;
43646;SDS011;56152;49.996;18.980;2023-02-28T22:44:43;119.60;;;47.27;;
43646;SDS011;56152;49.996;18.980;2023-02-28T22:49:45;101.10;;;44.17;;
43646;SDS011;56152;49.996;18.980;2023-02-28T22:54:50;103.03;;;43.23;;
43646;SDS011;56152;49.996;18.980;2023-02-28T22:59:52;97.00;;;41.93;;
43646;SDS011;56152;49.996;18.980;2023-02-28T23:04:55;91.23;;;38.53;;
43646;SDS011;56152;49.996;18.980;2023-02-28T23:10:01;75.90;;;37.10;;
43646;SDS011;56152;49.996;18.980;2023-02-28T23:15:05;89.50;;;37.73;;
43646;SDS011;56152;49.996;18.980;2023-02-28T23:20:11;77.00;;;37.33;;
43646;SDS011;56152;49.996;18.980;2023-02-28T23:25:17;89.93;;;35.80;;
43646;SDS011;56152;49.996;18.980;2023-02-28T23:30:21;91.30;;;38.17;;
43646;SDS011;56152;49.996;18.980;2023-02-28T23:35:23;89.77;;;37.40;;
43646;SDS011;56152;49.996;18.980;2023-02-28T23:40:27;74.43;;;30.13;;
43646;SDS011;56152;49.996;18.980;2023-02-28T23:45:29;76.40;;;32.83;;
43646;SDS011;56152;49.996;18.980;2023-02-28T23:50:32;70.00;;;29.53;;
43646;SDS011;56152;49.996;18.980;2023-02-28T23:55:37;79.03;;;34.77;;
